Aérodrome :
LOGIN :

S'inscrire | Disclaimer

   EN    FR    IT 

 










Légende :    VFR   VFR Marginal   IFR   IFR Intensif   IFR Très Intensif
Visi : 
Plafond : 
>= 8 km
>= 3000ft
5 à 8 km
1000 à 3000 ft
1500m à 5 km
500 à 1000 ft
800 à 1500m
200 à 500 ft
< 800m
< 200 ft
Symboles :   Orages  Brouillard  Fortes neiges  Fortes précipitations  Vent > 20 kt
SIGMETs :   Divers  Orages  Givrage  Turbulence  Onde Orograph.  Cendres Volcan.







- Altitude de l'aérodrome : 464 ft
- Code IATA : EVX
- Voir les cartes d'approche


LFOE - Evreux

DERNIER METAR :
  • 171500Z AUTO 30010KT 9999 BKN027/// BKN056/// BKN070/// ///TCU 22/17 Q1016

METARs EXPIRÉS :
  • 171430Z AUTO 23013KT 9999 SCT028/// BKN038/// BKN045/// ///CB 24/17 Q1016
  • 171400Z AUTO 23010KT 9999 SCT030/// BKN056/// BKN068/// ///TCU 24/17 Q1016
  • 171330Z AUTO 23013KT 9999 SCT029/// SCT054/// BKN072/// ///TCU 24/17 Q1016
  • 171300Z AUTO 23013KT 200V260 9999 FEW024 SCT100 BKN140 23/17 Q1016
  • 171230Z AUTO 22018KT 9999 BKN022 BKN062 BKN072 23/18 Q1016

TAF TAF LFOE
Valide du 17 à 15h jusqu'au 18 à 15h UTC


171400Z 1715/1815 24012KT 9999 BKN020
TEMPO 1715/1724 4000 SHRA SCT010 BKN015CB
BECMG 1719/1721 BKN014
TEMPO 1800/1807 3000 RA SCT006 BKN010
BECMG 1808/1810 SCT025
Pas de NOTAMs connus pour ce terrain.



MET'MAP, la Météo Aéronautique d'un coup d'oeil ! - Copyright ORBIFLY Décembre 2007 - Disclaimer

ORBIFLY MET'MAP TEAM :

Programmation & Développement : Alexandra Zaïnal
Conception & Développement : Baudouin d'Aumeries
Co-Programmation & Développement : Marc-Olivier Méhu
Soutien technique & logistique : Manuel Goepfert

Contact : metmap@orbifly.com




SOURCES & CREDITS :

   NOAA